sensor_id;sensor_type;location;lat;lon;timestamp;P1;durP1;ratioP1;P2;durP2;ratioP2
75700;SDS011;64321;48.796;44.740;2023-03-01T00:00:14;11.93;;;4.97;;
75700;SDS011;64321;48.796;44.740;2023-03-01T00:05:16;11.60;;;5.47;;
75700;SDS011;64321;48.796;44.740;2023-03-01T00:10:19;12.20;;;5.70;;
75700;SDS011;64321;48.796;44.740;2023-03-01T00:15:21;11.57;;;5.93;;
75700;SDS011;64321;48.796;44.740;2023-03-01T00:20:23;9.93;;;5.28;;
75700;SDS011;64321;48.796;44.740;2023-03-01T00:25:25;7.82;;;4.00;;
75700;SDS011;64321;48.796;44.740;2023-03-01T00:30:27;13.38;;;6.32;;
75700;SDS011;64321;48.796;44.740;2023-03-01T00:35:31;10.15;;;5.07;;
75700;SDS011;64321;48.796;44.740;2023-03-01T00:40:34;11.48;;;4.63;;
75700;SDS011;64321;48.796;44.740;2023-03-01T00:45:37;12.00;;;5.65;;
75700;SDS011;64321;48.796;44.740;2023-03-01T00:50:39;10.23;;;4.93;;
75700;SDS011;64321;48.796;44.740;2023-03-01T00:55:42;10.80;;;5.65;;
75700;SDS011;64321;48.796;44.740;2023-03-01T01:00:44;13.40;;;6.95;;
75700;SDS011;64321;48.796;44.740;2023-03-01T01:05:46;9.50;;;5.80;;
75700;SDS011;64321;48.796;44.740;2023-03-01T01:10:48;15.55;;;7.10;;
75700;SDS011;64321;48.796;44.740;2023-03-01T01:15:51;13.38;;;7.40;;
75700;SDS011;64321;48.796;44.740;2023-03-01T01:20:53;15.00;;;7.63;;
75700;SDS011;64321;48.796;44.740;2023-03-01T01:25:55;13.13;;;6.45;;
75700;SDS011;64321;48.796;44.740;2023-03-01T01:30:58;13.50;;;6.65;;
75700;SDS011;64321;48.796;44.740;2023-03-01T01:36:00;16.00;;;7.78;;
75700;SDS011;64321;48.796;44.740;2023-03-01T01:41:02;13.88;;;7.70;;
75700;SDS011;64321;48.796;44.740;2023-03-01T01:51:36;11.00;;;6.47;;
75700;SDS011;64321;48.796;44.740;2023-03-01T01:56:42;13.40;;;7.07;;
75700;SDS011;64321;48.796;44.740;2023-03-01T02:01:46;16.25;;;7.60;;
75700;SDS011;64321;48.796;44.740;2023-03-01T02:06:49;12.18;;;6.05;;
75700;SDS011;64321;48.796;44.740;2023-03-01T02:11:53;12.18;;;5.43;;
75700;SDS011;64321;48.796;44.740;2023-03-01T02:16:55;10.32;;;4.75;;
75700;SDS011;64321;48.796;44.740;2023-03-01T02:22:03;7.13;;;3.58;;
75700;SDS011;64321;48.796;44.740;2023-03-01T02:27:08;8.82;;;4.90;;
75700;SDS011;64321;48.796;44.740;2023-03-01T02:32:11;9.80;;;5.05;;
75700;SDS011;64321;48.796;44.740;2023-03-01T02:37:16;10.57;;;6.10;;
75700;SDS011;64321;48.796;44.740;2023-03-01T02:42:22;11.32;;;6.72;;
75700;SDS011;64321;48.796;44.740;2023-03-01T02:47:27;9.30;;;4.88;;
75700;SDS011;64321;48.796;44.740;2023-03-01T02:52:33;10.30;;;6.20;;
75700;SDS011;64321;48.796;44.740;2023-03-01T02:57:39;7.93;;;4.25;;
75700;SDS011;64321;48.796;44.740;2023-03-01T03:02:42;11.10;;;5.82;;
75700;SDS011;64321;48.796;44.740;2023-03-01T03:07:54;10.00;;;5.22;;
75700;SDS011;64321;48.796;44.740;2023-03-01T03:12:58;7.72;;;3.92;;
75700;SDS011;64321;48.796;44.740;2023-03-01T03:18:02;13.50;;;5.90;;
75700;SDS011;64321;48.796;44.740;2023-03-01T03:23:04;9.38;;;5.45;;
75700;SDS011;64321;48.796;44.740;2023-03-01T03:28:07;11.70;;;5.75;;
75700;SDS011;64321;48.796;44.740;2023-03-01T03:33:12;7.78;;;4.40;;
75700;SDS011;64321;48.796;44.740;2023-03-01T03:38:15;10.00;;;4.82;;
75700;SDS011;64321;48.796;44.740;2023-03-01T03:43:19;11.90;;;6.10;;
75700;SDS011;64321;48.796;44.740;2023-03-01T03:48:22;12.00;;;5.78;;
75700;SDS011;64321;48.796;44.740;2023-03-01T03:53:25;8.25;;;4.78;;
75700;SDS011;64321;48.796;44.740;2023-03-01T03:58:27;7.25;;;3.38;;
75700;SDS011;64321;48.796;44.740;2023-03-01T04:03:30;9.77;;;4.05;;
75700;SDS011;64321;48.796;44.740;2023-03-01T04:08:32;9.43;;;4.95;;
75700;SDS011;64321;48.796;44.740;2023-03-01T04:13:34;9.07;;;4.30;;
75700;SDS011;64321;48.796;44.740;2023-03-01T04:18:38;10.05;;;5.07;;
75700;SDS011;64321;48.796;44.740;2023-03-01T04:23:40;8.02;;;4.10;;
75700;SDS011;64321;48.796;44.740;2023-03-01T04:28:45;6.97;;;3.20;;
75700;SDS011;64321;48.796;44.740;2023-03-01T04:33:51;12.02;;;6.45;;
75700;SDS011;64321;48.796;44.740;2023-03-01T04:38:53;11.88;;;5.82;;
75700;SDS011;64321;48.796;44.740;2023-03-01T04:43:56;6.65;;;3.70;;
75700;SDS011;64321;48.796;44.740;2023-03-01T04:48:58;11.63;;;6.03;;
75700;SDS011;64321;48.796;44.740;2023-03-01T04:54:00;9.32;;;4.85;;
75700;SDS011;64321;48.796;44.740;2023-03-01T04:59:02;10.02;;;6.05;;
75700;SDS011;64321;48.796;44.740;2023-03-01T05:04:07;10.45;;;5.22;;
75700;SDS011;64321;48.796;44.740;2023-03-01T05:09:14;12.38;;;6.32;;
75700;SDS011;64321;48.796;44.740;2023-03-01T05:14:17;12.10;;;6.07;;
75700;SDS011;64321;48.796;44.740;2023-03-01T05:19:19;11.95;;;6.07;;
75700;SDS011;64321;48.796;44.740;2023-03-01T05:24:24;12.35;;;6.15;;
75700;SDS011;64321;48.796;44.740;2023-03-01T05:29:27;11.77;;;6.15;;
75700;SDS011;64321;48.796;44.740;2023-03-01T05:34:31;12.18;;;6.43;;
75700;SDS011;64321;48.796;44.740;2023-03-01T05:39:34;11.27;;;6.03;;
75700;SDS011;64321;48.796;44.740;2023-03-01T05:44:36;12.20;;;6.40;;
75700;SDS011;64321;48.796;44.740;2023-03-01T05:49:38;13.30;;;7.32;;
75700;SDS011;64321;48.796;44.740;2023-03-01T05:54:42;12.45;;;6.40;;
75700;SDS011;64321;48.796;44.740;2023-03-01T05:59:45;12.18;;;6.05;;
75700;SDS011;64321;48.796;44.740;2023-03-01T06:04:47;15.27;;;7.40;;
75700;SDS011;64321;48.796;44.740;2023-03-01T06:09:49;11.98;;;6.95;;
75700;SDS011;64321;48.796;44.740;2023-03-01T06:14:52;11.60;;;6.00;;
75700;SDS011;64321;48.796;44.740;2023-03-01T06:19:54;13.02;;;7.40;;
75700;SDS011;64321;48.796;44.740;2023-03-01T06:24:56;13.43;;;7.43;;
75700;SDS011;64321;48.796;44.740;2023-03-01T06:29:58;16.73;;;8.82;;
75700;SDS011;64321;48.796;44.740;2023-03-01T06:35:00;16.35;;;7.07;;
75700;SDS011;64321;48.796;44.740;2023-03-01T06:40:04;16.30;;;7.32;;
75700;SDS011;64321;48.796;44.740;2023-03-01T06:45:10;15.48;;;8.20;;
75700;SDS011;64321;48.796;44.740;2023-03-01T06:50:13;13.75;;;6.47;;
75700;SDS011;64321;48.796;44.740;2023-03-01T06:55:15;13.25;;;6.28;;
75700;SDS011;64321;48.796;44.740;2023-03-01T07:00:17;11.82;;;6.32;;
75700;SDS011;64321;48.796;44.740;2023-03-01T07:05:20;13.32;;;7.15;;
75700;SDS011;64321;48.796;44.740;2023-03-01T07:10:22;11.18;;;5.88;;
75700;SDS011;64321;48.796;44.740;2023-03-01T07:15:25;11.07;;;6.05;;
75700;SDS011;64321;48.796;44.740;2023-03-01T07:20:29;12.88;;;6.80;;
75700;SDS011;64321;48.796;44.740;2023-03-01T07:25:32;14.68;;;7.68;;
75700;SDS011;64321;48.796;44.740;2023-03-01T07:30:34;15.30;;;7.57;;
75700;SDS011;64321;48.796;44.740;2023-03-01T07:35:36;12.05;;;6.93;;
75700;SDS011;64321;48.796;44.740;2023-03-01T07:40:38;14.60;;;7.07;;
75700;SDS011;64321;48.796;44.740;2023-03-01T07:45:40;14.65;;;7.18;;
75700;SDS011;64321;48.796;44.740;2023-03-01T07:50:43;15.05;;;7.28;;
75700;SDS011;64321;48.796;44.740;2023-03-01T07:55:45;14.50;;;8.13;;
75700;SDS011;64321;48.796;44.740;2023-03-01T08:00:47;16.13;;;6.35;;
75700;SDS011;64321;48.796;44.740;2023-03-01T08:05:50;8.07;;;4.55;;
75700;SDS011;64321;48.796;44.740;2023-03-01T08:10:52;15.55;;;7.63;;
75700;SDS011;64321;48.796;44.740;2023-03-01T08:15:54;10.68;;;6.25;;
75700;SDS011;64321;48.796;44.740;2023-03-01T08:21:03;10.73;;;6.05;;
75700;SDS011;64321;48.796;44.740;2023-03-01T08:26:09;9.77;;;5.38;;
75700;SDS011;64321;48.796;44.740;2023-03-01T08:31:13;12.35;;;6.22;;
75700;SDS011;64321;48.796;44.740;2023-03-01T08:36:18;12.23;;;5.80;;
75700;SDS011;64321;48.796;44.740;2023-03-01T08:41:21;9.18;;;4.70;;
75700;SDS011;64321;48.796;44.740;2023-03-01T08:46:57;9.73;;;5.32;;
75700;SDS011;64321;48.796;44.740;2023-03-01T08:51:53;11.20;;;5.90;;
75700;SDS011;64321;48.796;44.740;2023-03-01T08:56:56;10.02;;;5.30;;
75700;SDS011;64321;48.796;44.740;2023-03-01T09:02:00;13.05;;;6.13;;
75700;SDS011;64321;48.796;44.740;2023-03-01T09:07:03;10.63;;;5.07;;
75700;SDS011;64321;48.796;44.740;2023-03-01T09:12:05;13.63;;;7.30;;
75700;SDS011;64321;48.796;44.740;2023-03-01T09:17:07;12.48;;;6.80;;
75700;SDS011;64321;48.796;44.740;2023-03-01T09:22:09;11.68;;;4.07;;
75700;SDS011;64321;48.796;44.740;2023-03-01T09:27:11;9.90;;;5.25;;
75700;SDS011;64321;48.796;44.740;2023-03-01T09:32:15;11.98;;;5.15;;
75700;SDS011;64321;48.796;44.740;2023-03-01T09:37:18;11.07;;;5.60;;
75700;SDS011;64321;48.796;44.740;2023-03-01T09:42:20;11.10;;;6.30;;
75700;SDS011;64321;48.796;44.740;2023-03-01T09:47:26;10.15;;;4.93;;
75700;SDS011;64321;48.796;44.740;2023-03-01T09:57:50;10.00;;;5.38;;
75700;SDS011;64321;48.796;44.740;2023-03-01T10:03:12;9.13;;;5.55;;
75700;SDS011;64321;48.796;44.740;2023-03-01T10:13:42;12.18;;;6.53;;
75700;SDS011;64321;48.796;44.740;2023-03-01T10:18:48;10.98;;;5.68;;
75700;SDS011;64321;48.796;44.740;2023-03-01T10:24:05;10.48;;;5.30;;
75700;SDS011;64321;48.796;44.740;2023-03-01T10:29:14;15.40;;;6.85;;
75700;SDS011;64321;48.796;44.740;2023-03-01T10:34:21;12.55;;;6.20;;
75700;SDS011;64321;48.796;44.740;2023-03-01T10:39:25;12.65;;;5.95;;
75700;SDS011;64321;48.796;44.740;2023-03-01T10:50:19;10.43;;;5.22;;
75700;SDS011;64321;48.796;44.740;2023-03-01T11:00:20;11.48;;;6.40;;
75700;SDS011;64321;48.796;44.740;2023-03-01T11:05:24;11.93;;;6.03;;
75700;SDS011;64321;48.796;44.740;2023-03-01T11:10:28;14.60;;;7.15;;
75700;SDS011;64321;48.796;44.740;2023-03-01T11:15:31;16.27;;;7.28;;
75700;SDS011;64321;48.796;44.740;2023-03-01T11:20:36;12.02;;;6.03;;
75700;SDS011;64321;48.796;44.740;2023-03-01T11:25:40;12.00;;;6.32;;
75700;SDS011;64321;48.796;44.740;2023-03-01T11:30:47;11.88;;;6.75;;
75700;SDS011;64321;48.796;44.740;2023-03-01T11:41:16;12.95;;;7.45;;
75700;SDS011;64321;48.796;44.740;2023-03-01T11:51:53;12.90;;;6.97;;
75700;SDS011;64321;48.796;44.740;2023-03-01T11:57:00;12.98;;;7.30;;
75700;SDS011;64321;48.796;44.740;2023-03-01T12:07:40;14.88;;;7.32;;
75700;SDS011;64321;48.796;44.740;2023-03-01T12:13:08;14.18;;;7.03;;
75700;SDS011;64321;48.796;44.740;2023-03-01T12:28:45;15.23;;;7.38;;
75700;SDS011;64321;48.796;44.740;2023-03-01T12:34:00;12.40;;;6.15;;
75700;SDS011;64321;48.796;44.740;2023-03-01T12:49:38;16.15;;;8.68;;
75700;SDS011;64321;48.796;44.740;2023-03-01T12:54:42;15.82;;;7.32;;
75700;SDS011;64321;48.796;44.740;2023-03-01T13:20:27;14.32;;;7.53;;
75700;SDS011;64321;48.796;44.740;2023-03-01T13:25:31;16.77;;;8.90;;
75700;SDS011;64321;48.796;44.740;2023-03-01T13:30:43;16.42;;;7.43;;
75700;SDS011;64321;48.796;44.740;2023-03-01T13:35:46;15.98;;;8.80;;
75700;SDS011;64321;48.796;44.740;2023-03-01T13:45:51;19.48;;;8.80;;
75700;SDS011;64321;48.796;44.740;2023-03-01T13:51:02;15.27;;;8.50;;
75700;SDS011;64321;48.796;44.740;2023-03-01T14:01:26;17.02;;;7.97;;
75700;SDS011;64321;48.796;44.740;2023-03-01T14:06:30;12.68;;;6.90;;
75700;SDS011;64321;48.796;44.740;2023-03-01T14:27:10;13.65;;;6.90;;
75700;SDS011;64321;48.796;44.740;2023-03-01T14:37:25;15.75;;;7.80;;
75700;SDS011;64321;48.796;44.740;2023-03-01T14:42:28;19.90;;;8.32;;
75700;SDS011;64321;48.796;44.740;2023-03-01T14:47:33;15.13;;;6.43;;
75700;SDS011;64321;48.796;44.740;2023-03-01T14:52:39;17.30;;;7.13;;
75700;SDS011;64321;48.796;44.740;2023-03-01T14:57:43;16.25;;;7.47;;
75700;SDS011;64321;48.796;44.740;2023-03-01T15:02:50;13.63;;;6.43;;
75700;SDS011;64321;48.796;44.740;2023-03-01T15:07:52;15.18;;;8.18;;
75700;SDS011;64321;48.796;44.740;2023-03-01T15:12:55;15.48;;;7.60;;
75700;SDS011;64321;48.796;44.740;2023-03-01T15:18:05;14.55;;;7.00;;
75700;SDS011;64321;48.796;44.740;2023-03-01T15:23:42;12.50;;;7.03;;
75700;SDS011;64321;48.796;44.740;2023-03-01T15:28:40;17.08;;;8.43;;
75700;SDS011;64321;48.796;44.740;2023-03-01T15:33:43;11.40;;;6.13;;
75700;SDS011;64321;48.796;44.740;2023-03-01T15:38:51;13.65;;;6.70;;
75700;SDS011;64321;48.796;44.740;2023-03-01T15:43:54;12.15;;;6.57;;
75700;SDS011;64321;48.796;44.740;2023-03-01T15:48:58;13.85;;;6.55;;
75700;SDS011;64321;48.796;44.740;2023-03-01T15:54:03;14.35;;;7.03;;
75700;SDS011;64321;48.796;44.740;2023-03-01T15:59:05;13.93;;;7.50;;
75700;SDS011;64321;48.796;44.740;2023-03-01T16:04:12;11.85;;;6.28;;
75700;SDS011;64321;48.796;44.740;2023-03-01T16:09:18;15.75;;;8.27;;
75700;SDS011;64321;48.796;44.740;2023-03-01T16:14:20;16.85;;;8.27;;
75700;SDS011;64321;48.796;44.740;2023-03-01T16:19:22;15.10;;;7.53;;
75700;SDS011;64321;48.796;44.740;2023-03-01T16:24:25;15.93;;;8.60;;
75700;SDS011;64321;48.796;44.740;2023-03-01T16:29:27;15.32;;;7.90;;
75700;SDS011;64321;48.796;44.740;2023-03-01T16:34:30;15.48;;;7.80;;
75700;SDS011;64321;48.796;44.740;2023-03-01T16:39:33;6.93;;;3.17;;
75700;SDS011;64321;48.796;44.740;2023-03-01T16:44:35;2.67;;;0.98;;
75700;SDS011;64321;48.796;44.740;2023-03-01T16:49:37;1.95;;;0.93;;
75700;SDS011;64321;48.796;44.740;2023-03-01T16:54:40;2.80;;;1.00;;
75700;SDS011;64321;48.796;44.740;2023-03-01T16:59:43;2.13;;;0.95;;
75700;SDS011;64321;48.796;44.740;2023-03-01T17:04:53;2.33;;;1.25;;
75700;SDS011;64321;48.796;44.740;2023-03-01T17:09:55;2.88;;;1.00;;
75700;SDS011;64321;48.796;44.740;2023-03-01T17:14:57;3.80;;;1.05;;
75700;SDS011;64321;48.796;44.740;2023-03-01T17:19:59;2.20;;;1.50;;
75700;SDS011;64321;48.796;44.740;2023-03-01T17:25:07;2.42;;;0.73;;
75700;SDS011;64321;48.796;44.740;2023-03-01T17:30:09;4.68;;;1.00;;
75700;SDS011;64321;48.796;44.740;2023-03-01T17:35:12;3.10;;;0.90;;
75700;SDS011;64321;48.796;44.740;2023-03-01T17:40:14;2.53;;;1.20;;
75700;SDS011;64321;48.796;44.740;2023-03-01T17:45:17;1.80;;;0.80;;
75700;SDS011;64321;48.796;44.740;2023-03-01T17:50:19;2.40;;;0.75;;
75700;SDS011;64321;48.796;44.740;2023-03-01T17:55:21;2.20;;;1.05;;
75700;SDS011;64321;48.796;44.740;2023-03-01T18:00:24;2.70;;;1.00;;
75700;SDS011;64321;48.796;44.740;2023-03-01T18:05:26;1.65;;;0.93;;
75700;SDS011;64321;48.796;44.740;2023-03-01T18:10:29;3.30;;;1.13;;
75700;SDS011;64321;48.796;44.740;2023-03-01T18:15:32;4.20;;;1.55;;
75700;SDS011;64321;48.796;44.740;2023-03-01T18:20:34;2.35;;;0.93;;
75700;SDS011;64321;48.796;44.740;2023-03-01T18:25:38;3.13;;;1.05;;
75700;SDS011;64321;48.796;44.740;2023-03-01T18:30:41;2.88;;;1.30;;
75700;SDS011;64321;48.796;44.740;2023-03-01T18:35:43;5.63;;;1.40;;
75700;SDS011;64321;48.796;44.740;2023-03-01T18:40:45;5.03;;;1.52;;
75700;SDS011;64321;48.796;44.740;2023-03-01T18:45:47;2.88;;;1.02;;
75700;SDS011;64321;48.796;44.740;2023-03-01T18:50:50;4.65;;;1.52;;
75700;SDS011;64321;48.796;44.740;2023-03-01T18:55:57;5.78;;;1.25;;
75700;SDS011;64321;48.796;44.740;2023-03-01T19:01:00;6.50;;;0.98;;
75700;SDS011;64321;48.796;44.740;2023-03-01T19:06:05;6.32;;;1.55;;
75700;SDS011;64321;48.796;44.740;2023-03-01T19:11:07;5.18;;;2.00;;
75700;SDS011;64321;48.796;44.740;2023-03-01T19:16:11;6.13;;;1.88;;
75700;SDS011;64321;48.796;44.740;2023-03-01T19:21:14;5.57;;;2.15;;
75700;SDS011;64321;48.796;44.740;2023-03-01T19:26:18;6.28;;;2.17;;
75700;SDS011;64321;48.796;44.740;2023-03-01T19:31:24;6.68;;;2.15;;
75700;SDS011;64321;48.796;44.740;2023-03-01T19:36:27;6.60;;;2.00;;
75700;SDS011;64321;48.796;44.740;2023-03-01T19:41:35;5.60;;;2.25;;
75700;SDS011;64321;48.796;44.740;2023-03-01T19:46:38;6.18;;;2.42;;
75700;SDS011;64321;48.796;44.740;2023-03-01T19:51:40;6.82;;;1.80;;
75700;SDS011;64321;48.796;44.740;2023-03-01T19:56:42;7.57;;;2.17;;
75700;SDS011;64321;48.796;44.740;2023-03-01T20:01:44;10.07;;;2.75;;
75700;SDS011;64321;48.796;44.740;2023-03-01T20:06:47;5.50;;;1.98;;
75700;SDS011;64321;48.796;44.740;2023-03-01T20:11:50;3.75;;;1.25;;
75700;SDS011;64321;48.796;44.740;2023-03-01T20:16:52;5.28;;;1.90;;
75700;SDS011;64321;48.796;44.740;2023-03-01T20:21:54;5.47;;;2.10;;
75700;SDS011;64321;48.796;44.740;2023-03-01T20:26:57;5.32;;;2.00;;
75700;SDS011;64321;48.796;44.740;2023-03-01T20:31:59;5.07;;;1.80;;
75700;SDS011;64321;48.796;44.740;2023-03-01T20:37:02;4.50;;;2.05;;
75700;SDS011;64321;48.796;44.740;2023-03-01T20:42:04;3.78;;;1.20;;
75700;SDS011;64321;48.796;44.740;2023-03-01T20:47:06;7.05;;;1.65;;
75700;SDS011;64321;48.796;44.740;2023-03-01T20:52:09;8.73;;;2.38;;
75700;SDS011;64321;48.796;44.740;2023-03-01T20:57:11;5.88;;;1.80;;
75700;SDS011;64321;48.796;44.740;2023-03-01T21:02:14;5.35;;;1.75;;
75700;SDS011;64321;48.796;44.740;2023-03-01T21:07:16;4.80;;;2.08;;
75700;SDS011;64321;48.796;44.740;2023-03-01T21:12:18;5.65;;;1.65;;
75700;SDS011;64321;48.796;44.740;2023-03-01T21:17:21;3.00;;;1.50;;
75700;SDS011;64321;48.796;44.740;2023-03-01T21:22:23;5.63;;;1.58;;
75700;SDS011;64321;48.796;44.740;2023-03-01T21:27:25;9.45;;;1.73;;
75700;SDS011;64321;48.796;44.740;2023-03-01T21:32:27;3.05;;;1.08;;
75700;SDS011;64321;48.796;44.740;2023-03-01T21:37:30;3.13;;;1.33;;
75700;SDS011;64321;48.796;44.740;2023-03-01T21:42:34;3.42;;;1.15;;
75700;SDS011;64321;48.796;44.740;2023-03-01T21:47:37;3.72;;;1.30;;
75700;SDS011;64321;48.796;44.740;2023-03-01T21:52:40;4.80;;;1.45;;
75700;SDS011;64321;48.796;44.740;2023-03-01T21:57:42;4.07;;;1.42;;
75700;SDS011;64321;48.796;44.740;2023-03-01T22:02:44;3.15;;;0.90;;
75700;SDS011;64321;48.796;44.740;2023-03-01T22:07:46;3.88;;;1.17;;
75700;SDS011;64321;48.796;44.740;2023-03-01T22:12:49;3.45;;;1.50;;
75700;SDS011;64321;48.796;44.740;2023-03-01T22:22:53;2.75;;;1.25;;
75700;SDS011;64321;48.796;44.740;2023-03-01T22:27:55;3.08;;;1.02;;
75700;SDS011;64321;48.796;44.740;2023-03-01T22:32:57;3.40;;;1.30;;
75700;SDS011;64321;48.796;44.740;2023-03-01T22:37:59;3.28;;;1.15;;
75700;SDS011;64321;48.796;44.740;2023-03-01T22:43:02;2.30;;;1.25;;
75700;SDS011;64321;48.796;44.740;2023-03-01T22:48:04;2.80;;;1.30;;
75700;SDS011;64321;48.796;44.740;2023-03-01T22:53:07;2.03;;;0.82;;
75700;SDS011;64321;48.796;44.740;2023-03-01T22:58:09;1.92;;;1.25;;
75700;SDS011;64321;48.796;44.740;2023-03-01T23:03:11;1.70;;;1.25;;
75700;SDS011;64321;48.796;44.740;2023-03-01T23:08:14;3.55;;;1.42;;
75700;SDS011;64321;48.796;44.740;2023-03-01T23:13:16;6.88;;;1.08;;
75700;SDS011;64321;48.796;44.740;2023-03-01T23:18:19;3.15;;;0.90;;
75700;SDS011;64321;48.796;44.740;2023-03-01T23:23:21;3.78;;;1.10;;
75700;SDS011;64321;48.796;44.740;2023-03-01T23:28:24;3.55;;;1.10;;
75700;SDS011;64321;48.796;44.740;2023-03-01T23:33:27;2.60;;;1.23;;
75700;SDS011;64321;48.796;44.740;2023-03-01T23:38:29;5.68;;;1.40;;
75700;SDS011;64321;48.796;44.740;2023-03-01T23:43:31;2.83;;;1.20;;
75700;SDS011;64321;48.796;44.740;2023-03-01T23:48:34;3.83;;;1.20;;
75700;SDS011;64321;48.796;44.740;2023-03-01T23:53:37;7.22;;;0.85;;
75700;SDS011;64321;48.796;44.740;2023-03-01T23:58:40;3.38;;;0.88;;
